Gaschem Rhone — DCVJ2 — position and weather

sailwx.info

Track history (hours):
 
Tides and Currents Weather Stations Pressure Air Temp Water Temp Dewpoint Dewpoint Depression Visibility Wind Speed Wind Dir Waves Ship Positions

Gaschem Rhone

Last reported at 2017-Dec-11 16:58 UTC. Time now 2017-Dec-14 00:28 UTC.
Position N 31°35' E 121°20'.

Length 115 m; draft 5 m.

Type: Ship. MMSI: 218533000.

Date/timePositionNaut miles runAvg speedWind from/ knotsBaromVisibWave heightAir tempDewpointWater temp
2017-Dec-11 16:58N 31°35' E 121°20'0 0.0
2017-Dec-11 16:28N 31°35' E 121°20'0 0.0
2017-Dec-11 15:58N 31°35' E 121°20'0 0.0
2017-Dec-11 15:28N 31°35' E 121°20'0 0.0
2017-Dec-11 14:55N 31°35' E 121°20'0 0.0
2017-Dec-11 14:27N 31°35' E 121°20'0 0.0
2017-Dec-11 14:00N 31°35' E 121°20'0 0.1
2017-Dec-11 13:27N 31°35' E 121°20'0 0.0
2017-Dec-11 12:57N 31°35' E 121°20'0 0.1
2017-Dec-11 12:13N 31°35' E 121°20'0 0.0
2017-Dec-11 11:47N 31°35' E 121°20'0 0.0
2017-Dec-11 11:26N 31°35' E 121°20'0 0.0
2017-Dec-11 10:59N 31°35' E 121°20'0 0.0
2017-Dec-11 10:26N 31°35' E 121°20'0 0.0
2017-Dec-11 09:55N 31°35' E 121°20'0 0.0
2017-Dec-11 09:28N 31°35' E 121°20'0 0.1
2017-Dec-11 08:55N 31°35' E 121°20'0 0.0
2017-Dec-11 08:30N 31°35' E 121°20'2 3.2
2017-Dec-11 08:00N 31°33' E 121°21'611.8
2017-Dec-11 07:30N 31°29' E 121°26'611.3
2017-Dec-11 07:00N 31°25' E 121°30'5 9.3
2017-Dec-11 06:29N 31°23' E 121°36'1812.3
2017-Dec-11 05:02N 31°16' E 121°54'612.3
2017-Dec-11 04:34N 31°15' E 122°01'  
2017-Dec-07 15:23N 34°24' E 138°44'912.0
2017-Dec-07 14:39N 34°28' E 138°54'211.4
2017-Dec-07 14:30N 34°29' E 138°55'511.0
2017-Dec-07 14:01N 34°31' E 139°01'510.9
2017-Dec-07 13:31N 34°36' E 139°05'611.3
2017-Dec-07 13:01N 34°41' E 139°08'612.4
2017-Dec-07 12:29N 34°46' E 139°12'712.4
2017-Dec-07 11:54N 34°52' E 139°18'512.4
2017-Dec-07 11:29N 34°56' E 139°22'612.0
2017-Dec-07 11:00N 34°58' E 139°28'612.1
2017-Dec-07 10:30N 35°01' E 139°35'613.0
2017-Dec-07 10:00N 35°04' E 139°42'713.8
2017-Dec-07 09:31N 35°10' E 139°46'612.2
2017-Dec-07 09:00N 35°16' E 139°45'612.5
2017-Dec-07 08:31N 35°22' E 139°42'713.4
2017-Dec-07 08:00N 35°27' E 139°48'713.9
2017-Dec-07 07:30N 35°31' E 139°55'612.3
2017-Dec-07 07:00N 35°32' E 140°03'1 1.1
2017-Dec-07 06:20N 35°32' E 140°03'0 0.0
2017-Dec-07 05:35N 35°32' E 140°03'0 0.0
2017-Dec-07 05:26N 35°32' E 140°03'0 0.0
2017-Dec-07 04:19N 35°32' E 140°03'0 0.0
2017-Dec-07 03:55N 35°32' E 140°03'0 0.0
2017-Dec-07 02:18N 35°32' E 140°03'0 0.0
2017-Dec-07 01:54N 35°32' E 140°03'0 0.0
2017-Dec-07 01:27N 35°32' E 140°03'0 0.0
2017-Dec-07 01:00N 35°32' E 140°03'0 0.0
2017-Dec-07 00:23N 35°32' E 140°03'0 0.0
2017-Dec-06 23:59N 35°32' E 140°03'0 0.0
2017-Dec-06 23:29N 35°32' E 140°03'0 0.0
2017-Dec-06 22:53N 35°32' E 140°03'0 0.0
2017-Dec-06 22:26N 35°32' E 140°03'2 3.5
2017-Dec-06 22:00N 35°32' E 140°02'2 3.0
2017-Dec-06 21:11N 35°30' E 139°59'0 0.0
2017-Dec-06 20:47N 35°30' E 139°59'  
2017-Dec-04 10:25N 35°28' E 139°46'0 0.1
2017-Dec-04 09:58N 35°28' E 139°46'0 0.0
2017-Dec-04 09:30N 35°28' E 139°46'0 0.0
2017-Dec-04 09:00N 35°28' E 139°46'54039662.3
2017-Dec-04 08:27N 30°53' E 032°19'540312073.4
2017-Dec-04 08:00N 35°28' E 139°46'0 0.1
2017-Dec-04 07:30N 35°28' E 139°46'0 0.1
2017-Dec-04 06:59N 35°28' E 139°46'0 0.0
2017-Dec-04 06:29N 35°28' E 139°46'0 0.2
2017-Dec-04 05:59N 35°28' E 139°46'53879428.6
2017-Dec-04 05:25N 31°17' E 032°22'538712345.4
2017-Dec-04 04:58N 35°28' E 139°46'0 0.0
2017-Dec-04 04:28N 35°28' E 139°46'0 0.0
2017-Dec-04 03:55N 35°28' E 139°46'0 0.0
2017-Dec-04 03:28N 35°28' E 139°46'0 0.0
2017-Dec-04 03:01N 35°28' E 139°46'0 0.0
2017-Dec-04 02:30N 35°28' E 139°46'0 0.0
2017-Dec-04 02:00N 35°28' E 139°46'0 0.1
2017-Dec-04 01:30N 35°28' E 139°46'0 0.1
2017-Dec-04 01:00N 35°28' E 139°46'0 0.0
2017-Dec-04 00:29N 35°28' E 139°46'0 0.1
2017-Dec-03 23:59N 35°28' E 139°46'0 0.0
2017-Dec-03 23:29N 35°28' E 139°46'0 0.1
2017-Dec-03 22:59N 35°28' E 139°46'0 0.1
2017-Dec-03 22:29N 35°28' E 139°46'0 0.1
2017-Dec-03 21:58N 35°28' E 139°46'0 0.1
2017-Dec-03 21:28N 35°28' E 139°46'0 0.0
2017-Dec-03 20:58N 35°28' E 139°46'0 0.0
2017-Dec-03 20:28N 35°28' E 139°46'0 0.1
2017-Dec-03 19:58N 35°28' E 139°46'0 0.0
2017-Dec-03 19:30N 35°28' E 139°46'0 0.0
2017-Dec-03 19:00N 35°28' E 139°46'53939702.7
2017-Dec-03 18:27N 31°46' E 031°55'539311947.8
2017-Dec-03 18:00N 35°28' E 139°46'0 0.0
2017-Dec-03 17:29N 35°28' E 139°46'0 0.0
2017-Dec-03 16:59N 35°28' E 139°46'0 0.0
2017-Dec-03 16:29N 35°28' E 139°46'0 0.0
2017-Dec-03 15:59N 35°28' E 139°46'0 0.0
2017-Dec-03 15:29N 35°28' E 139°46'0 0.1
2017-Dec-03 14:58N 35°28' E 139°46'0 0.0
2017-Dec-03 14:28N 35°28' E 139°46'0 0.1
2017-Dec-03 13:58N 35°28' E 139°46'0 0.1
2017-Dec-03 13:28N 35°28' E 139°46'0 0.0
2017-Dec-03 13:00N 35°28' E 139°46'0 0.0
2017-Dec-03 12:30N 35°28' E 139°46'0 0.0
2017-Dec-03 12:00N 35°28' E 139°46'0 0.0
2017-Dec-03 11:30N 35°28' E 139°46'0 0.0
2017-Dec-03 10:57N 35°28' E 139°46'0 0.0
2017-Dec-03 10:29N 35°28' E 139°46'0 0.1
2017-Dec-03 09:59N 35°28' E 139°46'0 0.0
2017-Dec-03 09:29N 35°28' E 139°46'0 0.0
2017-Dec-03 08:56N 35°28' E 139°46'0 0.0
2017-Dec-03 08:29N 35°28' E 139°46'0 0.1
2017-Dec-03 07:58N 35°28' E 139°46'0 0.0
2017-Dec-03 07:28N 35°28' E 139°46'0 0.0
2017-Dec-03 06:58N 35°28' E 139°46'0 0.0
2017-Dec-03 06:28N 35°29' E 139°46'0 0.0
2017-Dec-03 05:57N 35°29' E 139°46'0 0.1
2017-Dec-03 05:27N 35°29' E 139°46'0 0.1
2017-Dec-03 05:00N 35°29' E 139°46'1 2.0
2017-Dec-03 04:31N 35°28' E 139°47'611.8
2017-Dec-03 04:00N 35°22' E 139°45'611.4
2017-Dec-03 03:30N 35°16' E 139°46'612.2
2017-Dec-03 03:01N 35°10' E 139°47'713.8
2017-Dec-03 02:30N 35°04' E 139°43'714.3
2017-Dec-03 02:00N 34°59' E 139°37'815.6
2017-Dec-03 01:29N 34°55' E 139°29'815.8
2017-Dec-03 01:00N 34°50' E 139°21'815.8
2017-Dec-03 00:30N 34°44' E 139°15'816.3
2017-Dec-03 00:00N 34°38' E 139°08'916.7
2017-Dec-02 23:29N 34°32' E 139°01'56452833.7
2017-Dec-02 21:30N 34°19' E 024°59'9317.0
2017-Dec-02 16:00N 35°10' E 023°24'5393283.1
2017-Dec-01 20:57N 33°14' E 132°03'613.8
2017-Dec-01 20:30N 33°19' E 131°59'713.0
2017-Dec-01 20:00N 33°25' E 131°55'714.2
2017-Dec-01 19:30N 33°31' E 131°51'714.1
2017-Dec-01 19:00N 33°37' E 131°47'714.5
2017-Dec-01 18:31N 33°44' E 131°44'713.5
2017-Dec-01 18:01N 33°47' E 131°37'814.9
2017-Dec-01 17:30N 33°48' E 131°28'815.3
2017-Dec-01 17:00N 33°50' E 131°19'  
Track history (hours):
 
Tides and Currents Weather Stations Pressure Air Temp Water Temp Dewpoint Dewpoint Depression Visibility Wind Speed Wind Dir Waves Ship Positions

Gaschem Rhone

Last reported at 2017-Dec-11 16:58 UTC. Time now 2017-Dec-14 00:28 UTC.
Position N 31°35' E 121°20'.

Length 115 m; draft 5 m.

Type: Ship. MMSI: 218533000.

Date/timePositionNaut miles runAvg speedWind from/ knotsBaromVisibWave heightAir tempDewpointWater temp
2017-Dec-11 16:58N 31°35' E 121°20'0 0.0
2017-Dec-11 16:28N 31°35' E 121°20'0 0.0
2017-Dec-11 15:58N 31°35' E 121°20'0 0.0
2017-Dec-11 15:28N 31°35' E 121°20'0 0.0
2017-Dec-11 14:55N 31°35' E 121°20'0 0.0
2017-Dec-11 14:27N 31°35' E 121°20'0 0.0
2017-Dec-11 14:00N 31°35' E 121°20'0 0.1
2017-Dec-11 13:27N 31°35' E 121°20'0 0.0
2017-Dec-11 12:57N 31°35' E 121°20'0 0.1
2017-Dec-11 12:13N 31°35' E 121°20'0 0.0
2017-Dec-11 11:47N 31°35' E 121°20'0 0.0
2017-Dec-11 11:26N 31°35' E 121°20'0 0.0
2017-Dec-11 10:59N 31°35' E 121°20'0 0.0
2017-Dec-11 10:26N 31°35' E 121°20'0 0.0
2017-Dec-11 09:55N 31°35' E 121°20'0 0.0
2017-Dec-11 09:28N 31°35' E 121°20'0 0.1
2017-Dec-11 08:55N 31°35' E 121°20'0 0.0
2017-Dec-11 08:30N 31°35' E 121°20'2 3.2
2017-Dec-11 08:00N 31°33' E 121°21'611.8
2017-Dec-11 07:30N 31°29' E 121°26'611.3
2017-Dec-11 07:00N 31°25' E 121°30'5 9.3
2017-Dec-11 06:29N 31°23' E 121°36'1812.3
2017-Dec-11 05:02N 31°16' E 121°54'612.3
2017-Dec-11 04:34N 31°15' E 122°01'  
2017-Dec-07 15:23N 34°24' E 138°44'912.0
2017-Dec-07 14:39N 34°28' E 138°54'211.4
2017-Dec-07 14:30N 34°29' E 138°55'511.0
2017-Dec-07 14:01N 34°31' E 139°01'510.9
2017-Dec-07 13:31N 34°36' E 139°05'611.3
2017-Dec-07 13:01N 34°41' E 139°08'612.4
2017-Dec-07 12:29N 34°46' E 139°12'712.4
2017-Dec-07 11:54N 34°52' E 139°18'512.4
2017-Dec-07 11:29N 34°56' E 139°22'612.0
2017-Dec-07 11:00N 34°58' E 139°28'612.1
2017-Dec-07 10:30N 35°01' E 139°35'613.0
2017-Dec-07 10:00N 35°04' E 139°42'713.8
2017-Dec-07 09:31N 35°10' E 139°46'612.2
2017-Dec-07 09:00N 35°16' E 139°45'612.5
2017-Dec-07 08:31N 35°22' E 139°42'713.4
2017-Dec-07 08:00N 35°27' E 139°48'713.9
2017-Dec-07 07:30N 35°31' E 139°55'612.3
2017-Dec-07 07:00N 35°32' E 140°03'1 1.1
2017-Dec-07 06:20N 35°32' E 140°03'0 0.0
2017-Dec-07 05:35N 35°32' E 140°03'0 0.0
2017-Dec-07 05:26N 35°32' E 140°03'0 0.0
2017-Dec-07 04:19N 35°32' E 140°03'0 0.0
2017-Dec-07 03:55N 35°32' E 140°03'0 0.0
2017-Dec-07 02:18N 35°32' E 140°03'0 0.0
2017-Dec-07 01:54N 35°32' E 140°03'0 0.0
2017-Dec-07 01:27N 35°32' E 140°03'0 0.0
2017-Dec-07 01:00N 35°32' E 140°03'0 0.0
2017-Dec-07 00:23N 35°32' E 140°03'0 0.0
2017-Dec-06 23:59N 35°32' E 140°03'0 0.0
2017-Dec-06 23:29N 35°32' E 140°03'0 0.0
2017-Dec-06 22:53N 35°32' E 140°03'0 0.0
2017-Dec-06 22:26N 35°32' E 140°03'2 3.5
2017-Dec-06 22:00N 35°32' E 140°02'2 3.0
2017-Dec-06 21:11N 35°30' E 139°59'0 0.0
2017-Dec-06 20:47N 35°30' E 139°59'  
2017-Dec-04 10:25N 35°28' E 139°46'0 0.1
2017-Dec-04 09:58N 35°28' E 139°46'0 0.0
2017-Dec-04 09:30N 35°28' E 139°46'0 0.0
2017-Dec-04 09:00N 35°28' E 139°46'54039662.3
2017-Dec-04 08:27N 30°53' E 032°19'540312073.4
2017-Dec-04 08:00N 35°28' E 139°46'0 0.1
2017-Dec-04 07:30N 35°28' E 139°46'0 0.1
2017-Dec-04 06:59N 35°28' E 139°46'0 0.0
2017-Dec-04 06:29N 35°28' E 139°46'0 0.2
2017-Dec-04 05:59N 35°28' E 139°46'53879428.6
2017-Dec-04 05:25N 31°17' E 032°22'538712345.4
2017-Dec-04 04:58N 35°28' E 139°46'0 0.0
2017-Dec-04 04:28N 35°28' E 139°46'0 0.0
2017-Dec-04 03:55N 35°28' E 139°46'0 0.0
2017-Dec-04 03:28N 35°28' E 139°46'0 0.0
2017-Dec-04 03:01N 35°28' E 139°46'0 0.0
2017-Dec-04 02:30N 35°28' E 139°46'0 0.0
2017-Dec-04 02:00N 35°28' E 139°46'0 0.1
2017-Dec-04 01:30N 35°28' E 139°46'0 0.1
2017-Dec-04 01:00N 35°28' E 139°46'0 0.0
2017-Dec-04 00:29N 35°28' E 139°46'0 0.1
2017-Dec-03 23:59N 35°28' E 139°46'0 0.0
2017-Dec-03 23:29N 35°28' E 139°46'0 0.1
2017-Dec-03 22:59N 35°28' E 139°46'0 0.1
2017-Dec-03 22:29N 35°28' E 139°46'0 0.1
2017-Dec-03 21:58N 35°28' E 139°46'0 0.1
2017-Dec-03 21:28N 35°28' E 139°46'0 0.0
2017-Dec-03 20:58N 35°28' E 139°46'0 0.0
2017-Dec-03 20:28N 35°28' E 139°46'0 0.1
2017-Dec-03 19:58N 35°28' E 139°46'0 0.0
2017-Dec-03 19:30N 35°28' E 139°46'0 0.0
2017-Dec-03 19:00N 35°28' E 139°46'53939702.7
2017-Dec-03 18:27N 31°46' E 031°55'539311947.8
2017-Dec-03 18:00N 35°28' E 139°46'0 0.0
2017-Dec-03 17:29N 35°28' E 139°46'0 0.0
2017-Dec-03 16:59N 35°28' E 139°46'0 0.0
2017-Dec-03 16:29N 35°28' E 139°46'0 0.0
2017-Dec-03 15:59N 35°28' E 139°46'0 0.0
2017-Dec-03 15:29N 35°28' E 139°46'0 0.1
2017-Dec-03 14:58N 35°28' E 139°46'0 0.0
2017-Dec-03 14:28N 35°28' E 139°46'0 0.1
2017-Dec-03 13:58N 35°28' E 139°46'0 0.1
2017-Dec-03 13:28N 35°28' E 139°46'0 0.0
2017-Dec-03 13:00N 35°28' E 139°46'0 0.0
2017-Dec-03 12:30N 35°28' E 139°46'0 0.0
2017-Dec-03 12:00N 35°28' E 139°46'0 0.0
2017-Dec-03 11:30N 35°28' E 139°46'0 0.0
2017-Dec-03 10:57N 35°28' E 139°46'0 0.0
2017-Dec-03 10:29N 35°28' E 139°46'0 0.1
2017-Dec-03 09:59N 35°28' E 139°46'0 0.0
2017-Dec-03 09:29N 35°28' E 139°46'0 0.0
2017-Dec-03 08:56N 35°28' E 139°46'0 0.0
2017-Dec-03 08:29N 35°28' E 139°46'0 0.1
2017-Dec-03 07:58N 35°28' E 139°46'0 0.0
2017-Dec-03 07:28N 35°28' E 139°46'0 0.0
2017-Dec-03 06:58N 35°28' E 139°46'0 0.0
2017-Dec-03 06:28N 35°29' E 139°46'0 0.0
2017-Dec-03 05:57N 35°29' E 139°46'0 0.1
2017-Dec-03 05:27N 35°29' E 139°46'0 0.1
2017-Dec-03 05:00N 35°29' E 139°46'1 2.0
2017-Dec-03 04:31N 35°28' E 139°47'611.8
2017-Dec-03 04:00N 35°22' E 139°45'611.4
2017-Dec-03 03:30N 35°16' E 139°46'612.2
2017-Dec-03 03:01N 35°10' E 139°47'713.8
2017-Dec-03 02:30N 35°04' E 139°43'714.3
2017-Dec-03 02:00N 34°59' E 139°37'815.6
2017-Dec-03 01:29N 34°55' E 139°29'815.8
2017-Dec-03 01:00N 34°50' E 139°21'815.8
2017-Dec-03 00:30N 34°44' E 139°15'816.3
2017-Dec-03 00:00N 34°38' E 139°08'916.7
2017-Dec-02 23:29N 34°32' E 139°01'56452833.7
2017-Dec-02 21:30N 34°19' E 024°59'9317.0
2017-Dec-02 16:00N 35°10' E 023°24'5393283.1
2017-Dec-01 20:57N 33°14' E 132°03'613.8
2017-Dec-01 20:30N 33°19' E 131°59'713.0
2017-Dec-01 20:00N 33°25' E 131°55'714.2
2017-Dec-01 19:30N 33°31' E 131°51'714.1
2017-Dec-01 19:00N 33°37' E 131°47'714.5
2017-Dec-01 18:31N 33°44' E 131°44'713.5
2017-Dec-01 18:01N 33°47' E 131°37'814.9
2017-Dec-01 17:30N 33°48' E 131°28'815.3
2017-Dec-01 17:00N 33°50' E 131°19'  

Dump ship's entire track history